»·PEaware :: JBU8833 KJFK-KBUF

JBU8833 :: KJFK-KBUF

FLIGHT INFORMATION

Flight Status: Arrived
Operator:
JetBlue Airways
More flights by this operator :: More flights under this callsign
Pilot: Cooper L. (8467)
Aircraft: EMBRAER EMB-190/195
(E190)
More flights by this aircraft type
Origin: KJFK Kennedy Intl
United States
Destination: KBUF Buffalo Niagara Intl
United States
More flights between these airports :: More routes between these airports
Route: NEION J223 CORDS ULW BENEE
File this flight plan on PilotEdge
Remarks:
Altitude:
(Current/Filed)
22,000ft
Speed:
(Current/Filed)
350kts
Departed: 27-Nov-15 09:31 PM
Arrived: 27-Nov-15 10:22 PM
Distance/Time
Traveled:
261nm/0:51
Distance/Time
To Go:
Arrived

Flight Plot

Page will automatically refresh every two minutes.


Map Options




Map Legend


Flown Route
Filed Route
Departure Airport
Arrival Airport
Navaid (VOR, NDB)
Fix

Horizontal Profiles

Position Reports

Time Latitude Longitude Heading Altitude Ground
Speed
27-Nov-15 21:07 40.646127 -73.772426 167 21ft 0kts
27-Nov-15 21:08 40.646127 -73.772426 167 21ft 0kts
27-Nov-15 21:09 40.646127 -73.772426 167 21ft 0kts
27-Nov-15 21:10 40.646127 -73.772426 167 21ft 0kts
27-Nov-15 21:11 40.646127 -73.772426 167 21ft 0kts
27-Nov-15 21:12 40.646127 -73.772426 167 21ft 0kts
27-Nov-15 21:13 40.646127 -73.772426 167 21ft 0kts
27-Nov-15 21:14 40.646127 -73.772426 167 21ft 0kts
27-Nov-15 21:15 40.646127 -73.772426 167 21ft 0kts
27-Nov-15 21:16 40.646355 -73.772493 167 21ft 1kts
27-Nov-15 21:17 40.646720 -73.772836 62 21ft 1kts
27-Nov-15 21:18 40.647873 -73.773163 132 21ft 5kts
27-Nov-15 21:19 40.644250 -73.770920 139 21ft 2kts
27-Nov-15 21:20 40.641839 -73.766736 210 21ft 10kts
27-Nov-15 21:21 40.638622 -73.769090 193 21ft 16kts
27-Nov-15 21:22 40.633295 -73.769420 180 21ft 19kts
27-Nov-15 21:23 40.631506 -73.769536 191 21ft 0kts
27-Nov-15 21:24 40.630740 -73.769880 206 21ft 22kts
27-Nov-15 21:25 40.629675 -73.770747 211 21ft 22kts
27-Nov-15 21:26 40.629063 -73.771227 210 21ft 0kts
27-Nov-15 21:27 40.629023 -73.771258 210 21ft 2kts
27-Nov-15 21:28 40.629824 -73.775745 300 21ft 82kts
27-Nov-15 21:29 40.642843 -73.830460 263 3131ft 190kts
27-Nov-15 21:30 40.619040 -73.895664 250 5015ft 242kts
27-Nov-15 21:31 40.642343 -73.965631 346 6277ft 277kts
27-Nov-15 21:32 40.704538 -74.001011 321 7374ft 269kts
27-Nov-15 21:33 40.761587 -74.059592 316 8544ft 267kts
27-Nov-15 21:34 40.815977 -74.119410 316 9691ft 267kts
27-Nov-15 21:35 40.871978 -74.181523 315 10863ft 272kts
27-Nov-15 21:36 40.935541 -74.252450 315 12528ft 365kts
27-Nov-15 21:37 41.010411 -74.336004 315 14464ft 359kts
27-Nov-15 21:38 41.085714 -74.420395 315 15639ft 356kts
27-Nov-15 21:39 41.163305 -74.507605 315 17531ft 385kts
27-Nov-15 21:40 41.237568 -74.609677 294 20887ft 389kts
27-Nov-15 21:41 41.285801 -74.736912 291 22412ft 398kts
27-Nov-15 21:42 41.333037 -74.865394 291 22560ft 391kts
27-Nov-15 21:43 41.379386 -74.992266 291 23945ft 404kts
27-Nov-15 21:44 41.423027 -75.112220 291 23978ft 404kts
27-Nov-15 21:45 41.466057 -75.230999 291 23977ft 403kts
27-Nov-15 21:46 41.513835 -75.363469 291 23974ft 403kts
27-Nov-15 21:47 41.559414 -75.490418 291 23969ft 403kts
27-Nov-15 21:48 41.604315 -75.616038 291 25264ft 410kts
27-Nov-15 21:49 41.648781 -75.739988 291 25972ft 415kts
27-Nov-15 21:50 41.695507 -75.871703 291 25973ft 414kts
27-Nov-15 21:51 41.741872 -76.003192 291 25955ft 414kts
27-Nov-15 21:52 41.789331 -76.138427 291 25935ft 414kts
27-Nov-15 21:53 41.837343 -76.275907 291 25934ft 414kts
27-Nov-15 21:54 41.884117 -76.410493 291 25932ft 414kts
27-Nov-15 21:55 41.930049 -76.543272 290 25931ft 412kts
27-Nov-15 21:56 41.974672 -76.672608 290 25930ft 404kts
27-Nov-15 21:57 42.020577 -76.805629 289 25931ft 397kts
27-Nov-15 21:58 42.064253 -76.933672 288 25930ft 390kts
27-Nov-15 21:59 42.105006 -77.056288 287 26243ft 389kts
27-Nov-15 22:00 42.148179 -77.188278 288 25924ft 398kts
27-Nov-15 22:01 42.191867 -77.321107 288 25003ft 391kts
27-Nov-15 22:02 42.233424 -77.448077 288 24085ft 376kts
27-Nov-15 22:03 42.274188 -77.573304 288 23142ft 370kts
27-Nov-15 22:04 42.313236 -77.693076 288 22256ft 366kts
27-Nov-15 22:05 42.353051 -77.815807 287 21391ft 363kts
27-Nov-15 22:06 42.392261 -77.937814 288 20515ft 360kts
27-Nov-15 22:07 42.430863 -78.058496 288 19634ft 356kts
27-Nov-15 22:08 42.487779 -78.237448 288 18290ft 350kts
27-Nov-15 22:09 42.557705 -78.350366 324 15527ft 371kts
27-Nov-15 22:10 42.647238 -78.409737 327 12520ft 359kts
27-Nov-15 22:11 42.728402 -78.462048 329 9716ft 291kts
27-Nov-15 22:12 42.781459 -78.496395 331 6274ft 192kts
27-Nov-15 22:13 42.828506 -78.527961 315 4193ft 191kts
27-Nov-15 22:14 42.856640 -78.577221 309 3369ft 150kts
27-Nov-15 22:15 42.879297 -78.618372 309 2548ft 116kts
27-Nov-15 22:16 42.898756 -78.653638 307 1635ft 128kts
27-Nov-15 22:17 42.920078 -78.692695 308 1288ft 131kts
27-Nov-15 22:18 42.941004 -78.730712 306 732ft 83kts
27-Nov-15 22:19 42.943582 -78.737501 127 732ft 13kts
27-Nov-15 22:20 42.940907 -78.732846 162 732ft 7kts
27-Nov-15 22:21 42.936942 -78.732382 136 732ft 13kts
27-Nov-15 22:22 42.936074 -78.731183 134 732ft 0kts

Navigation Log

Ident Type
Flight plan parsing failed, navigation log unavailable